Time;durP1;ratioP1;P1;durP2;ratioP2;P2;SDS_P1;SDS_P2;PMS_P1;PMS_P2;Temp;Humidity;BMP_temperature;BMP_pressure;BME280_temperature;BME280_humidity;BME280_pressure;Samples;Min_cycle;Max_cycle;Signal;HPM_P1;HPM_P2
2023/05/26 00:00:15;;;;;;;12.38;7.72;;;;;;;;;;495067;28;965;-76
2023/05/26 00:00:41;;;;;;;11.60;8.27;;;;;;;;;;506758;28;1416;-76
2023/05/26 00:01:14;;;;;;;12.02;8.10;;;;;;;;;;505305;28;1825;-76
2023/05/26 00:01:57;;;;;;;11.18;8.30;;;;;;;;;;502792;28;960;-76
2023/05/26 00:02:36;;;;;;;10.73;7.97;;;;;;;;;;495547;28;1346;-77
2023/05/26 00:02:58;;;;;;;11.80;7.78;;;;;;;;;;497981;28;1344;-76
2023/05/26 00:03:29;;;;;;;11.88;7.82;;;;;;;;;;494222;28;1156;-76
2023/05/26 00:03:56;;;;;;;10.75;7.95;;;;;;;;;;507667;28;1646;-76
2023/05/26 00:04:33;;;;;;;10.02;8.20;;;;;;;;;;500063;28;1374;-75
2023/05/26 00:05:04;;;;;;;10.55;8.10;;;;;;;;;;511186;28;1654;-76
2023/05/26 00:05:40;;;;;;;10.85;7.95;;;;;;;;;;501046;28;1395;-75
2023/05/26 00:06:04;;;;;;;10.57;8.07;;;;;;;;;;506186;28;1601;-76
2023/05/26 00:06:59;;;;;;;10.60;8.13;;;;;;;;;;489016;28;1249;-76
2023/05/26 00:07:27;;;;;;;11.90;8.27;;;;;;;;;;494885;28;1465;-76
2023/05/26 00:07:46;;;;;;;9.98;8.30;;;;;;;;;;498194;28;957;-75
2023/05/26 00:08:16;;;;;;;10.80;8.43;;;;;;;;;;498732;28;1855;-76
2023/05/26 00:08:39;;;;;;;10.00;7.85;;;;;;;;;;502540;28;1637;-76
2023/05/26 00:08:57;;;;;;;10.60;7.97;;;;;;;;;;507781;28;1085;-76
2023/05/26 00:09:14;;;;;;;13.43;8.65;;;;;;;;;;496583;28;1389;-75
2023/05/26 00:09:30;;;;;;;12.15;8.32;;;;;;;;;;508437;28;1523;-76
2023/05/26 00:10:08;;;;;;;12.30;8.32;;;;;;;;;;502629;28;1312;-76
2023/05/26 00:10:24;;;;;;;10.43;8.23;;;;;;;;;;495531;28;2024;-76
2023/05/26 00:10:41;;;;;;;12.68;8.52;;;;;;;;;;504662;28;922;-76
2023/05/26 00:11:00;;;;;;;14.27;8.90;;;;;;;;;;508486;28;964;-77
2023/05/26 00:11:28;;;;;;;12.30;8.70;;;;;;;;;;497052;28;1090;-76
2023/05/26 00:11:50;;;;;;;10.82;8.48;;;;;;;;;;496130;28;1358;-75
2023/05/26 00:12:14;;;;;;;11.30;8.38;;;;;;;;;;496382;28;1418;-75
2023/05/26 00:12:42;;;;;;;12.60;8.43;;;;;;;;;;506509;28;1084;-76
2023/05/26 00:13:16;;;;;;;11.52;8.30;;;;;;;;;;506994;28;1201;-75
2023/05/26 00:13:50;;;;;;;;;;;;;;;;;;;;;
2023/05/26 00:14:14;;;;;;;9.93;8.13;;;;;;;;;;497348;28;1109;-76
2023/05/26 00:14:39;;;;;;;10.73;8.50;;;;;;;;;;511432;28;1310;-76
2023/05/26 00:15:00;;;;;;;11.05;8.55;;;;;;;;;;510025;28;1154;-73
2023/05/26 00:15:22;;;;;;;12.52;8.68;;;;;;;;;;495459;28;1311;-76
2023/05/26 00:15:46;;;;;;;12.40;8.40;;;;;;;;;;486523;28;1195;-76
2023/05/26 00:16:17;;;;;;;11.95;8.45;;;;;;;;;;502225;28;1117;-76
2023/05/26 00:16:57;;;;;;;10.45;8.30;;;;;;;;;;505237;28;1232;-76
2023/05/26 00:17:18;;;;;;;11.45;8.77;;;;;;;;;;485536;28;1365;-77
2023/05/26 00:17:43;;;;;;;11.45;8.60;;;;;;;;;;505321;28;1033;-75
2023/05/26 00:18:17;;;;;;;13.55;8.57;;;;;;;;;;495174;28;1337;-76
2023/05/26 00:18:35;;;;;;;12.20;8.60;;;;;;;;;;499848;28;1495;-76
2023/05/26 00:19:19;;;;;;;10.90;8.60;;;;;;;;;;500085;28;1444;-76
2023/05/26 00:19:38;;;;;;;11.50;8.32;;;;;;;;;;500183;28;1550;-75
2023/05/26 00:19:59;;;;;;;10.50;8.20;;;;;;;;;;496378;28;1078;-76
2023/05/26 00:20:29;;;;;;;;;;;;;;;;;;;;;
2023/05/26 00:20:56;;;;;;;12.15;8.43;;;;;;;;;;506503;28;1109;-75
2023/05/26 00:21:43;;;;;;;12.15;8.70;;;;;;;;;;490742;28;1357;-75
2023/05/26 00:22:11;;;;;;;10.20;8.23;;;;;;;;;;497548;28;1598;-77
2023/05/26 00:22:38;;;;;;;12.32;8.80;;;;;;;;;;493122;28;1268;-75
2023/05/26 00:23:01;;;;;;;10.90;8.55;;;;;;;;;;498244;28;1506;-76
2023/05/26 00:23:26;;;;;;;12.73;8.80;;;;;;;;;;488716;28;1364;-76
2023/05/26 00:23:55;;;;;;;13.30;8.93;;;;;;;;;;498227;28;1534;-76
2023/05/26 00:24:58;;;;;;;11.88;8.80;;;;;;;;;;487012;28;1506;-76
2023/05/26 00:25:40;;;;;;;10.43;8.55;;;;;;;;;;484630;28;1543;-75
2023/05/26 00:26:17;;;;;;;11.77;8.50;;;;;;;;;;487394;28;1210;-76
2023/05/26 00:27:02;;;;;;;11.13;8.80;;;;;;;;;;477470;29;1544;-76
2023/05/26 00:27:45;;;;;;;12.07;8.35;;;;;;;;;;485517;29;1214;-76
2023/05/26 00:28:18;;;;;;;13.55;9.10;;;;;;;;;;488606;28;1199;-76
2023/05/26 00:29:03;;;;;;;12.25;8.77;;;;;;;;;;508859;28;1476;-76
2023/05/26 00:29:21;;;;;;;10.23;8.75;;;;;;;;;;499728;28;1319;-76
2023/05/26 00:31:18;;;;;;;13.10;9.13;;;;;;;;;;502335;28;2006;-76
2023/05/26 00:31:53;;;;;;;11.60;8.88;;;;;;;;;;507243;28;1438;-76
2023/05/26 00:32:28;;;;;;;10.40;8.35;;;;;;;;;;502812;28;1609;-76
2023/05/26 00:33:05;;;;;;;10.85;8.57;;;;;;;;;;496883;28;1325;-76
2023/05/26 00:33:29;;;;;;;11.57;8.50;;;;;;;;;;490660;28;1240;-76
2023/05/26 00:33:59;;;;;;;12.77;8.68;;;;;;;;;;504743;28;1271;-76
2023/05/26 00:34:21;;;;;;;11.48;8.65;;;;;;;;;;495595;28;1529;-76
2023/05/26 00:34:47;;;;;;;13.68;9.20;;;;;;;;;;496939;28;1343;-76
2023/05/26 00:35:33;;;;;;;12.35;8.95;;;;;;;;;;505306;28;1322;-76
2023/05/26 00:35:49;;;;;;;11.73;8.98;;;;;;;;;;501280;28;1205;-75
2023/05/26 00:36:32;;;;;;;11.52;9.13;;;;;;;;;;503390;28;1473;-76
2023/05/26 00:37:29;;;;;;;12.27;8.90;;;;;;;;;;507627;28;1154;-75
2023/05/26 00:37:51;;;;;;;11.32;8.68;;;;;;;;;;499861;28;1932;-76
2023/05/26 00:38:31;;;;;;;10.70;8.30;;;;;;;;;;488436;28;1508;-76
2023/05/26 00:38:55;;;;;;;12.63;8.85;;;;;;;;;;500917;28;1217;-76
2023/05/26 00:39:35;;;;;;;13.43;8.73;;;;;;;;;;490037;28;1788;-76
2023/05/26 00:40:16;;;;;;;11.85;8.60;;;;;;;;;;502052;28;1272;-76
2023/05/26 00:40:42;;;;;;;12.43;8.95;;;;;;;;;;504061;28;1405;-76
2023/05/26 00:41:07;;;;;;;11.90;9.27;;;;;;;;;;505940;28;1521;-76
2023/05/26 00:41:28;;;;;;;12.73;9.10;;;;;;;;;;494908;28;1249;-76
2023/05/26 00:42:24;;;;;;;13.00;9.07;;;;;;;;;;500833;28;1259;-76
2023/05/26 00:43:05;;;;;;;11.35;9.25;;;;;;;;;;503466;28;1409;-76
2023/05/26 00:43:34;;;;;;;12.98;9.32;;;;;;;;;;498558;28;1506;-76
2023/05/26 00:44:04;;;;;;;11.93;9.02;;;;;;;;;;501287;28;1362;-76
2023/05/26 00:44:34;;;;;;;12.15;9.13;;;;;;;;;;488418;28;1379;-76
2023/05/26 00:44:53;;;;;;;11.23;8.82;;;;;;;;;;505532;28;1392;-76
2023/05/26 00:45:36;;;;;;;12.50;9.07;;;;;;;;;;496337;28;1427;-76
2023/05/26 00:46:09;;;;;;;11.85;9.10;;;;;;;;;;509829;28;935;-76
2023/05/26 00:47:09;;;;;;;12.73;9.00;;;;;;;;;;495696;28;1276;-75
2023/05/26 00:47:20;;;;;;;11.73;8.90;;;;;;;;;;496161;28;987;-76
2023/05/26 00:48:02;;;;;;;10.80;8.38;;;;;;;;;;497792;28;1272;-76
2023/05/26 00:48:40;;;;;;;13.35;9.10;;;;;;;;;;494115;28;1139;-76
2023/05/26 00:49:15;;;;;;;9.77;8.48;;;;;;;;;;498988;28;1501;-76
2023/05/26 00:49:46;;;;;;;11.60;9.10;;;;;;;;;;493012;28;1113;-76
2023/05/26 00:51:07;;;;;;;12.82;9.40;;;;;;;;;;498067;28;1295;-74
2023/05/26 00:51:49;;;;;;;12.27;9.30;;;;;;;;;;499172;28;1276;-76
2023/05/26 00:52:12;;;;;;;11.07;8.93;;;;;;;;;;503257;28;1479;-76
2023/05/26 00:53:29;;;;;;;10.02;8.52;;;;;;;;;;493320;28;1532;-75
2023/05/26 00:53:55;;;;;;;11.38;8.88;;;;;;;;;;500673;28;1322;-76
2023/05/26 00:54:18;;;;;;;11.98;8.60;;;;;;;;;;487489;28;1425;-76
2023/05/26 00:54:42;;;;;;;12.02;8.90;;;;;;;;;;508403;28;1599;-76
2023/05/26 00:55:38;;;;;;;;;;;;;;;;;;;;;
2023/05/26 00:56:17;;;;;;;12.20;9.00;;;;;;;;;;508340;28;897;-76
2023/05/26 00:56:41;;;;;;;15.77;9.63;;;;;;;;;;508225;28;1161;-77
2023/05/26 00:57:23;;;;;;;12.02;9.30;;;;;;;;;;512443;28;1154;-76
2023/05/26 00:57:45;;;;;;;13.18;9.50;;;;;;;;;;499658;28;1422;-76
2023/05/26 00:58:30;;;;;;;12.20;9.48;;;;;;;;;;499050;28;1686;-76
2023/05/26 00:59:02;;;;;;;12.05;9.00;;;;;;;;;;486730;28;2039;-76
2023/05/26 00:59:33;;;;;;;13.32;9.50;;;;;;;;;;495971;28;1095;-76
2023/05/26 01:00:03;;;;;;;12.90;9.05;;;;;;;;;;504832;28;1461;-76
2023/05/26 01:00:42;;;;;;;11.90;9.02;;;;;;;;;;500619;28;1215;-75
2023/05/26 01:01:16;;;;;;;13.90;9.50;;;;;;;;;;508943;28;1502;-76
2023/05/26 01:01:50;;;;;;;11.90;8.77;;;;;;;;;;496766;28;1418;-76
2023/05/26 01:02:44;;;;;;;;;;;;;;;;;;;;;
2023/05/26 01:03:19;;;;;;;10.35;8.55;;;;;;;;;;501726;28;1368;-77
2023/05/26 01:03:40;;;;;;;10.35;8.70;;;;;;;;;;497325;28;971;-76
2023/05/26 01:04:03;;;;;;;8.98;8.07;;;;;;;;;;512391;28;1365;-75
2023/05/26 01:04:35;;;;;;;9.75;8.43;;;;;;;;;;501935;28;1208;-76
2023/05/26 01:04:54;;;;;;;10.35;8.77;;;;;;;;;;502324;28;1728;-76
2023/05/26 01:05:21;;;;;;;10.10;8.48;;;;;;;;;;492024;28;1373;-76
2023/05/26 01:06:26;;;;;;;9.25;8.25;;;;;;;;;;492710;28;1483;-75
2023/05/26 01:07:01;;;;;;;11.88;9.10;;;;;;;;;;492414;28;1461;-76
2023/05/26 01:08:18;;;;;;;10.52;8.70;;;;;;;;;;489434;28;1419;-76
2023/05/26 01:08:37;;;;;;;11.98;9.43;;;;;;;;;;489707;28;1109;-75
2023/05/26 01:09:26;;;;;;;12.98;9.68;;;;;;;;;;498386;28;1389;-75
2023/05/26 01:09:55;;;;;;;13.20;9.90;;;;;;;;;;496070;28;1477;-76
2023/05/26 01:10:25;;;;;;;13.43;9.60;;;;;;;;;;488116;28;1245;-76
2023/05/26 01:10:43;;;;;;;13.05;9.27;;;;;;;;;;486619;28;1942;-75
2023/05/26 01:11:50;;;;;;;11.40;9.13;;;;;;;;;;488867;28;1455;-76
2023/05/26 01:12:35;;;;;;;13.15;9.27;;;;;;;;;;490535;28;1371;-76
2023/05/26 01:13:34;;;;;;;12.93;9.57;;;;;;;;;;503164;28;1557;-75
2023/05/26 01:14:13;;;;;;;12.18;9.70;;;;;;;;;;490601;28;1325;-76
2023/05/26 01:15:23;;;;;;;;;;;;;;;;;;;;;
2023/05/26 01:16:11;;;;;;;12.43;9.60;;;;;;;;;;490692;28;1062;-76
2023/05/26 01:17:18;;;;;;;12.93;9.65;;;;;;;;;;487310;28;1459;-77
2023/05/26 01:17:48;;;;;;;10.70;9.30;;;;;;;;;;474774;29;1165;-77
2023/05/26 01:19:07;;;;;;;13.27;10.25;;;;;;;;;;471923;29;1815;-76
2023/05/26 01:20:19;;;;;;;12.27;9.82;;;;;;;;;;485517;29;1250;-76
2023/05/26 01:21:21;;;;;;;12.70;9.85;;;;;;;;;;491418;29;1361;-75
2023/05/26 01:21:50;;;;;;;12.20;9.68;;;;;;;;;;482431;29;1002;-75
2023/05/26 01:22:39;;;;;;;12.82;9.68;;;;;;;;;;480735;29;1561;-76
2023/05/26 01:23:36;;;;;;;10.23;8.98;;;;;;;;;;482860;29;1247;-76
2023/05/26 01:24:21;;;;;;;13.13;9.70;;;;;;;;;;486289;29;1364;-75
2023/05/26 01:24:48;;;;;;;11.73;9.43;;;;;;;;;;477359;29;1351;-75
2023/05/26 01:25:56;;;;;;;;;;;;;;;;;;;;;
2023/05/26 01:26:40;;;;;;;11.77;9.40;;;;;;;;;;471049;29;1054;-75
2023/05/26 01:27:35;;;;;;;12.65;9.40;;;;;;;;;;472217;29;1390;-76
2023/05/26 01:28:30;;;;;;;12.20;9.38;;;;;;;;;;478627;29;1534;-75
2023/05/26 01:29:15;;;;;;;12.98;9.48;;;;;;;;;;483684;29;1439;-76
2023/05/26 01:29:59;;;;;;;12.20;9.90;;;;;;;;;;486733;29;1470;-76
2023/05/26 01:30:27;;;;;;;11.50;9.57;;;;;;;;;;470525;29;1331;-76
2023/05/26 01:32:15;;;;;;;11.18;9.52;;;;;;;;;;474417;29;1589;-76
2023/05/26 01:32:34;;;;;;;12.95;10.18;;;;;;;;;;478225;29;1488;-76
2023/05/26 01:33:08;;;;;;;12.68;10.10;;;;;;;;;;487361;29;1339;-75
2023/05/26 01:33:25;;;;;;;12.90;9.82;;;;;;;;;;472495;29;1420;-75
2023/05/26 01:33:54;;;;;;;12.20;9.85;;;;;;;;;;482225;29;1394;-76
2023/05/26 01:34:36;;;;;;;11.20;9.00;;;;;;;;;;475107;29;1423;-76
2023/05/26 01:35:10;;;;;;;13.45;10.15;;;;;;;;;;477210;30;1249;-75
2023/05/26 01:35:42;;;;;;;11.95;9.75;;;;;;;;;;472942;30;1256;-76
2023/05/26 01:36:18;;;;;;;12.35;10.10;;;;;;;;;;470305;29;1356;-76
2023/05/26 01:36:48;;;;;;;11.40;10.00;;;;;;;;;;473052;29;1145;-76
2023/05/26 01:37:41;;;;;;;;;;;;;;;;;;;;;
2023/05/26 01:38:18;;;;;;;13.05;10.05;;;;;;;;;;478219;29;1344;-76
2023/05/26 01:38:40;;;;;;;13.40;10.10;;;;;;;;;;476690;29;1362;-76
2023/05/26 01:39:12;;;;;;;16.10;10.45;;;;;;;;;;483369;29;1413;-76
2023/05/26 01:39:36;;;;;;;13.85;10.20;;;;;;;;;;491690;29;1500;-75
2023/05/26 01:40:45;;;;;;;12.57;9.82;;;;;;;;;;489425;29;1503;-76
2023/05/26 01:41:42;;;;;;;12.40;9.70;;;;;;;;;;485556;29;1348;-76
2023/05/26 01:42:38;;;;;;;13.65;10.25;;;;;;;;;;479524;29;1122;-76
2023/05/26 01:43:52;;;;;;;11.20;9.80;;;;;;;;;;486068;29;1234;-75
2023/05/26 01:45:30;;;;;;;12.25;8.88;;;;;;;;;;465466;29;1509;-76
2023/05/26 01:45:39;;;;;;;11.48;9.43;;;;;;;;;;471369;30;1622;-76
2023/05/26 01:46:26;;;;;;;10.85;9.38;;;;;;;;;;479640;29;1280;-76
2023/05/26 01:46:47;;;;;;;13.38;9.50;;;;;;;;;;475408;29;1284;-76
2023/05/26 01:47:29;;;;;;;13.02;9.30;;;;;;;;;;483220;29;1297;-76
2023/05/26 01:47:59;;;;;;;11.43;9.70;;;;;;;;;;467679;29;1383;-76
2023/05/26 01:48:22;;;;;;;12.77;10.00;;;;;;;;;;470671;29;1213;-76
2023/05/26 01:48:47;;;;;;;13.15;10.07;;;;;;;;;;480646;29;1317;-75
2023/05/26 01:49:33;;;;;;;13.75;9.90;;;;;;;;;;485045;29;1217;-76
2023/05/26 01:50:09;;;;;;;13.65;10.20;;;;;;;;;;482116;29;1249;-75
2023/05/26 01:50:49;;;;;;;12.75;10.00;;;;;;;;;;484837;29;1178;-76
2023/05/26 01:51:33;;;;;;;11.40;9.82;;;;;;;;;;481228;29;1224;-76
2023/05/26 01:52:18;;;;;;;12.93;10.15;;;;;;;;;;480836;29;1333;-75
2023/05/26 01:52:57;;;;;;;13.73;10.35;;;;;;;;;;475863;29;1477;-76
2023/05/26 01:53:17;;;;;;;11.95;10.35;;;;;;;;;;472023;29;1713;-75
2023/05/26 01:53:42;;;;;;;12.77;10.30;;;;;;;;;;483265;29;1165;-76
2023/05/26 01:54:01;;;;;;;15.25;10.25;;;;;;;;;;482817;29;1632;-76
2023/05/26 01:54:21;;;;;;;14.18;10.23;;;;;;;;;;468425;29;1398;-76
2023/05/26 01:54:56;;;;;;;13.07;10.27;;;;;;;;;;479540;29;1535;-75
2023/05/26 01:55:31;;;;;;;13.35;10.55;;;;;;;;;;476325;29;1341;-76
2023/05/26 01:56:00;;;;;;;13.13;10.30;;;;;;;;;;485516;29;1290;-75
2023/05/26 01:56:32;;;;;;;14.48;10.65;;;;;;;;;;477477;29;1363;-76
2023/05/26 01:57:40;;;;;;;12.95;10.32;;;;;;;;;;486408;29;1285;-76
2023/05/26 01:57:50;;;;;;;12.00;10.35;;;;;;;;;;488960;29;1254;-76
2023/05/26 01:58:19;;;;;;;12.23;10.20;;;;;;;;;;478860;29;1047;-76
2023/05/26 01:58:42;;;;;;;14.00;11.20;;;;;;;;;;493736;29;1359;-75
2023/05/26 01:59:03;;;;;;;15.27;10.52;;;;;;;;;;479473;29;1449;-76
2023/05/26 01:59:33;;;;;;;15.13;10.15;;;;;;;;;;484428;29;1237;-76
2023/05/26 02:00:03;;;;;;;11.65;10.35;;;;;;;;;;485908;29;1179;-75
2023/05/26 02:00:32;;;;;;;13.25;10.40;;;;;;;;;;478182;29;1362;-75
2023/05/26 02:01:29;;;;;;;14.10;10.73;;;;;;;;;;479200;29;1438;-75
2023/05/26 02:02:03;;;;;;;13.38;10.38;;;;;;;;;;485219;28;1369;-76
2023/05/26 02:02:19;;;;;;;12.73;10.52;;;;;;;;;;481166;29;1114;-76
2023/05/26 02:02:49;;;;;;;13.38;10.55;;;;;;;;;;489731;28;1404;-75
2023/05/26 02:03:30;;;;;;;12.55;10.20;;;;;;;;;;496492;28;1462;-76
2023/05/26 02:03:57;;;;;;;13.65;11.02;;;;;;;;;;488928;28;1125;-76
2023/05/26 02:04:17;;;;;;;13.38;10.70;;;;;;;;;;489645;28;1241;-76
2023/05/26 02:04:58;;;;;;;13.10;10.90;;;;;;;;;;488666;28;1236;-76
2023/05/26 02:05:25;;;;;;;13.15;10.80;;;;;;;;;;491139;28;1511;-75
2023/05/26 02:05:42;;;;;;;14.73;10.88;;;;;;;;;;503671;28;1371;-76
2023/05/26 02:06:20;;;;;;;15.63;10.82;;;;;;;;;;501221;28;1337;-76
2023/05/26 02:06:39;;;;;;;13.80;10.77;;;;;;;;;;495660;28;1356;-75
2023/05/26 02:07:02;;;;;;;13.77;10.85;;;;;;;;;;492151;28;1395;-76
2023/05/26 02:07:40;;;;;;;14.95;10.90;;;;;;;;;;493329;28;1252;-75
2023/05/26 02:08:00;;;;;;;11.82;10.02;;;;;;;;;;502385;28;1430;-76
2023/05/26 02:08:22;;;;;;;12.80;10.50;;;;;;;;;;490063;28;1352;-76
2023/05/26 02:09:05;;;;;;;12.32;10.30;;;;;;;;;;487165;28;1551;-76
2023/05/26 02:09:33;;;;;;;13.50;10.73;;;;;;;;;;484992;28;1441;-76
2023/05/26 02:09:57;;;;;;;12.10;10.75;;;;;;;;;;497264;28;1350;-76
2023/05/26 02:11:21;;;;;;;14.35;10.50;;;;;;;;;;483586;29;1991;-76
2023/05/26 02:11:46;;;;;;;16.38;10.75;;;;;;;;;;491106;28;1209;-75
2023/05/26 02:12:06;;;;;;;14.55;10.63;;;;;;;;;;503317;28;1194;-76
2023/05/26 02:13:48;;;;;;;11.75;10.35;;;;;;;;;;484250;29;1245;-76
2023/05/26 02:14:15;;;;;;;12.25;10.50;;;;;;;;;;500175;28;1429;-76
2023/05/26 02:14:37;;;;;;;14.82;10.77;;;;;;;;;;503696;28;1262;-76
2023/05/26 02:15:22;;;;;;;13.95;10.50;;;;;;;;;;496376;28;972;-76
2023/05/26 02:16:04;;;;;;;12.98;10.57;;;;;;;;;;494357;29;1104;-76
2023/05/26 02:16:21;;;;;;;13.93;11.02;;;;;;;;;;484881;28;1222;-76
2023/05/26 02:16:43;;;;;;;13.50;10.95;;;;;;;;;;486821;29;1443;-76
2023/05/26 02:17:17;;;;;;;12.20;10.23;;;;;;;;;;484628;29;1372;-75
2023/05/26 02:17:32;;;;;;;14.52;10.55;;;;;;;;;;489219;28;1155;-75
2023/05/26 02:17:59;;;;;;;12.80;10.27;;;;;;;;;;490306;28;1384;-75
2023/05/26 02:18:24;;;;;;;10.50;9.40;;;;;;;;;;496618;28;1171;-76
2023/05/26 02:19:04;;;;;;;11.85;10.18;;;;;;;;;;497409;28;1459;-75
2023/05/26 02:19:20;;;;;;;13.20;10.45;;;;;;;;;;479889;29;1270;-75
2023/05/26 02:19:42;;;;;;;12.45;10.30;;;;;;;;;;499444;28;1455;-76
2023/05/26 02:20:02;;;;;;;10.82;9.50;;;;;;;;;;494340;28;1379;-75
2023/05/26 02:20:21;;;;;;;11.13;9.38;;;;;;;;;;487010;28;1509;-76
2023/05/26 02:20:46;;;;;;;10.50;9.23;;;;;;;;;;498388;28;1502;-76
2023/05/26 02:21:10;;;;;;;11.02;9.15;;;;;;;;;;488634;28;1338;-76
2023/05/26 02:21:26;;;;;;;10.27;9.20;;;;;;;;;;491431;28;1150;-75
2023/05/26 02:21:58;;;;;;;10.07;9.05;;;;;;;;;;501051;28;1203;-76
2023/05/26 02:22:19;;;;;;;11.98;9.68;;;;;;;;;;494887;28;1410;-75
2023/05/26 02:23:03;;;;;;;13.18;9.93;;;;;;;;;;501741;28;2125;-76
2023/05/26 02:23:38;;;;;;;12.05;10.15;;;;;;;;;;479939;28;1382;-75
2023/05/26 02:23:57;;;;;;;11.40;9.57;;;;;;;;;;487521;28;987;-76
2023/05/26 02:24:35;;;;;;;11.10;9.30;;;;;;;;;;486996;28;1095;-75
2023/05/26 02:25:08;;;;;;;11.30;10.03;;;;;;;;;;495846;28;1531;-76
2023/05/26 02:25:52;;;;;;;12.23;10.00;;;;;;;;;;491470;28;1351;-76
2023/05/26 02:26:21;;;;;;;12.95;10.18;;;;;;;;;;495471;28;1244;-76
2023/05/26 02:26:40;;;;;;;13.57;10.30;;;;;;;;;;498893;28;1191;-76
2023/05/26 02:27:08;;;;;;;;;;;;;;;;;;;;;
2023/05/26 02:27:24;;;;;;;11.85;9.80;;;;;;;;;;490251;28;1241;-76
2023/05/26 02:27:54;;;;;;;11.95;10.00;;;;;;;;;;502382;28;1306;-75
2023/05/26 02:28:24;;;;;;;14.35;10.70;;;;;;;;;;494348;28;1271;-76
2023/05/26 02:28:46;;;;;;;14.75;10.75;;;;;;;;;;505747;28;1404;-76
2023/05/26 02:29:10;;;;;;;12.82;10.43;;;;;;;;;;499375;28;1409;-75
2023/05/26 02:29:36;;;;;;;14.82;10.65;;;;;;;;;;494534;28;1300;-76
2023/05/26 02:30:17;;;;;;;12.63;10.60;;;;;;;;;;500048;28;1197;-75
2023/05/26 02:30:56;;;;;;;11.95;10.30;;;;;;;;;;496993;28;1386;-76
2023/05/26 02:31:20;;;;;;;14.98;12.32;;;;;;;;;;488915;28;1315;-76
2023/05/26 02:31:47;;;;;;;14.35;12.15;;;;;;;;;;492093;28;1330;-75
2023/05/26 02:32:12;;;;;;;14.45;11.15;;;;;;;;;;488046;28;1849;-76
2023/05/26 02:32:34;;;;;;;13.95;10.73;;;;;;;;;;496686;28;1199;-76
2023/05/26 02:32:55;;;;;;;13.55;10.98;;;;;;;;;;493438;28;1249;-76
2023/05/26 02:33:40;;;;;;;14.20;10.80;;;;;;;;;;486652;28;1341;-76
2023/05/26 02:34:04;;;;;;;12.50;10.77;;;;;;;;;;494894;29;1264;-75
2023/05/26 02:34:31;;;;;;;12.77;10.75;;;;;;;;;;487810;28;1559;-76
2023/05/26 02:35:09;;;;;;;13.27;11.00;;;;;;;;;;501863;28;1567;-76
2023/05/26 02:35:28;;;;;;;15.88;11.30;;;;;;;;;;492265;28;1372;-76
2023/05/26 02:35:43;;;;;;;15.75;11.20;;;;;;;;;;502784;28;1114;-76
2023/05/26 02:36:18;;;;;;;16.30;10.97;;;;;;;;;;498256;28;1378;-76
2023/05/26 02:36:42;;;;;;;14.32;10.98;;;;;;;;;;492228;28;1211;-76
2023/05/26 02:37:10;;;;;;;14.55;11.38;;;;;;;;;;495451;28;1572;-76
2023/05/26 02:37:38;;;;;;;14.18;11.15;;;;;;;;;;497956;28;1225;-76
2023/05/26 02:38:19;;;;;;;13.30;10.50;;;;;;;;;;495495;28;1329;-75
2023/05/26 02:38:48;;;;;;;15.80;11.27;;;;;;;;;;486203;28;1296;-75
2023/05/26 02:39:16;;;;;;;13.18;10.80;;;;;;;;;;501978;28;1161;-76
2023/05/26 02:39:58;;;;;;;11.93;10.52;;;;;;;;;;495769;28;1468;-75
2023/05/26 02:40:25;;;;;;;12.88;10.73;;;;;;;;;;482725;28;1296;-75
2023/05/26 02:40:50;;;;;;;11.35;10.15;;;;;;;;;;489836;28;1370;-76
2023/05/26 02:41:21;;;;;;;13.20;10.93;;;;;;;;;;494299;28;1126;-76
2023/05/26 02:41:45;;;;;;;13.43;11.27;;;;;;;;;;498582;28;1454;-75
2023/05/26 02:42:12;;;;;;;13.48;10.75;;;;;;;;;;495127;28;1214;-75
2023/05/26 02:42:36;;;;;;;13.77;11.52;;;;;;;;;;503762;28;1493;-75
2023/05/26 02:43:24;;;;;;;15.50;11.35;;;;;;;;;;503776;28;1396;-76
2023/05/26 02:43:50;;;;;;;14.82;11.30;;;;;;;;;;493051;28;1484;-76
2023/05/26 02:44:21;;;;;;;13.35;11.30;;;;;;;;;;503520;28;1460;-75
2023/05/26 02:44:40;;;;;;;13.48;11.48;;;;;;;;;;487997;28;1389;-76
2023/05/26 02:45:13;;;;;;;14.95;11.07;;;;;;;;;;504373;28;1181;-73
2023/05/26 02:45:29;;;;;;;13.40;10.90;;;;;;;;;;502877;28;1507;-72
2023/05/26 02:45:53;;;;;;;12.95;10.65;;;;;;;;;;499817;28;1275;-76
2023/05/26 02:46:18;;;;;;;13.93;10.93;;;;;;;;;;486644;28;1524;-76
2023/05/26 02:46:48;;;;;;;14.88;11.23;;;;;;;;;;498112;28;1418;-75
2023/05/26 02:47:39;;;;;;;;;;;;;;;;;;;;;
2023/05/26 02:48:01;;;;;;;12.80;10.75;;;;;;;;;;502143;28;999;-75
2023/05/26 02:48:27;;;;;;;13.13;10.57;;;;;;;;;;496696;28;1399;-76
2023/05/26 02:48:55;;;;;;;13.98;10.75;;;;;;;;;;498858;28;1176;-76
2023/05/26 02:49:14;;;;;;;14.30;11.00;;;;;;;;;;496116;28;1469;-77
2023/05/26 02:49:46;;;;;;;13.50;10.80;;;;;;;;;;505497;28;1423;-78
2023/05/26 02:50:18;;;;;;;13.80;11.15;;;;;;;;;;500820;28;1469;-76
2023/05/26 02:50:33;;;;;;;13.20;10.60;;;;;;;;;;500954;28;1363;-76
2023/05/26 02:50:49;;;;;;;14.32;10.90;;;;;;;;;;507280;28;2164;-75
2023/05/26 02:51:10;;;;;;;15.85;11.43;;;;;;;;;;504570;28;1401;-76
2023/05/26 02:51:38;;;;;;;14.20;11.52;;;;;;;;;;504856;28;1270;-76
2023/05/26 02:51:54;;;;;;;14.20;11.55;;;;;;;;;;502864;28;1438;-76
2023/05/26 02:52:16;;;;;;;14.10;11.53;;;;;;;;;;497545;28;1396;-75
2023/05/26 02:52:48;;;;;;;13.77;11.13;;;;;;;;;;503396;28;1512;-75
2023/05/26 02:53:24;;;;;;;13.65;10.88;;;;;;;;;;503825;28;1491;-76
2023/05/26 02:53:51;;;;;;;14.18;10.82;;;;;;;;;;499220;28;1461;-74
2023/05/26 02:54:21;;;;;;;14.80;10.93;;;;;;;;;;501137;28;1231;-76
2023/05/26 02:54:45;;;;;;;13.68;11.07;;;;;;;;;;505962;28;1022;-75
2023/05/26 02:55:01;;;;;;;13.63;11.40;;;;;;;;;;509208;28;1350;-75
2023/05/26 02:55:45;;;;;;;13.50;11.30;;;;;;;;;;493743;28;1045;-75
2023/05/26 02:56:33;;;;;;;13.10;10.85;;;;;;;;;;502591;28;1297;-74
2023/05/26 02:56:52;;;;;;;13.52;11.07;;;;;;;;;;481421;28;1345;-76
2023/05/26 02:57:16;;;;;;;14.88;11.10;;;;;;;;;;501376;28;1395;-76
2023/05/26 02:57:32;;;;;;;14.70;11.27;;;;;;;;;;509973;28;1009;-76
2023/05/26 02:57:49;;;;;;;14.95;11.13;;;;;;;;;;498887;28;1178;-75
2023/05/26 02:58:47;;;;;;;;;;;;;;;;;;;;;
2023/05/26 02:59:12;;;;;;;12.60;10.38;;;;;;;;;;516320;28;1103;-75
2023/05/26 02:59:46;;;;;;;12.60;10.77;;;;;;;;;;515039;28;1257;-75
2023/05/26 03:00:25;;;;;;;13.15;10.57;;;;;;;;;;499589;28;1445;-76
2023/05/26 03:01:16;;;;;;;12.45;10.82;;;;;;;;;;509779;28;1269;-74
2023/05/26 03:01:46;;;;;;;13.00;10.80;;;;;;;;;;504272;28;1886;-76
2023/05/26 03:02:05;;;;;;;12.88;10.50;;;;;;;;;;506394;28;1054;-76
2023/05/26 03:02:45;;;;;;;13.38;10.40;;;;;;;;;;490186;28;1236;-75
2023/05/26 03:03:20;;;;;;;13.57;10.90;;;;;;;;;;503999;28;1528;-74
2023/05/26 03:03:50;;;;;;;12.43;10.55;;;;;;;;;;489078;28;1210;-75
2023/05/26 03:04:06;;;;;;;11.93;10.45;;;;;;;;;;498523;28;2159;-75
2023/05/26 03:04:28;;;;;;;11.82;10.40;;;;;;;;;;493345;28;1185;-75
2023/05/26 03:05:05;;;;;;;12.57;10.80;;;;;;;;;;498287;28;1308;-74
2023/05/26 03:05:36;;;;;;;14.95;10.55;;;;;;;;;;483180;28;1100;-76
2023/05/26 03:05:57;;;;;;;13.25;11.10;;;;;;;;;;500694;28;1356;-75
2023/05/26 03:06:19;;;;;;;12.95;10.90;;;;;;;;;;494595;28;1475;-75
2023/05/26 03:07:02;;;;;;;13.10;10.77;;;;;;;;;;495387;28;1078;-76
2023/05/26 03:07:23;;;;;;;14.85;11.20;;;;;;;;;;492664;28;1187;-76
2023/05/26 03:07:41;;;;;;;13.48;10.98;;;;;;;;;;503643;28;1204;-74
2023/05/26 03:08:19;;;;;;;14.38;11.25;;;;;;;;;;499075;28;1205;-75
2023/05/26 03:08:54;;;;;;;15.98;11.52;;;;;;;;;;495185;28;1361;-75
2023/05/26 03:09:24;;;;;;;13.18;11.15;;;;;;;;;;497795;28;1254;-75
2023/05/26 03:10:45;;;;;;;13.68;11.52;;;;;;;;;;501980;28;1186;-76
2023/05/26 03:11:12;;;;;;;14.27;11.30;;;;;;;;;;498723;28;1268;-74
2023/05/26 03:11:31;;;;;;;14.00;11.35;;;;;;;;;;503338;28;1064;-75
2023/05/26 03:11:59;;;;;;;12.95;11.00;;;;;;;;;;508564;28;1617;-74
2023/05/26 03:12:20;;;;;;;15.23;11.10;;;;;;;;;;495499;28;2024;-76
2023/05/26 03:12:42;;;;;;;16.25;11.45;;;;;;;;;;507670;28;1527;-74
2023/05/26 03:13:13;;;;;;;15.35;11.70;;;;;;;;;;497246;28;1326;-76
2023/05/26 03:13:37;;;;;;;13.68;11.30;;;;;;;;;;485719;28;1343;-75
2023/05/26 03:14:37;;;;;;;14.75;11.35;;;;;;;;;;503604;28;976;-76
2023/05/26 03:14:38;;;;;;;15.15;11.35;;;;;;;;;;497679;28;1657;-76
2023/05/26 03:15:14;;;;;;;13.85;11.40;;;;;;;;;;504099;28;1434;-75
2023/05/26 03:16:00;;;;;;;13.98;11.45;;;;;;;;;;498832;28;1408;-75
2023/05/26 03:16:16;;;;;;;12.98;11.32;;;;;;;;;;496673;28;1197;-75
2023/05/26 03:16:43;;;;;;;13.45;11.07;;;;;;;;;;504226;28;1382;-75
2023/05/26 03:17:00;;;;;;;16.23;12.00;;;;;;;;;;494985;28;1450;-75
2023/05/26 03:17:31;;;;;;;15.43;12.00;;;;;;;;;;489230;28;1495;-75
2023/05/26 03:17:58;;;;;;;14.68;11.77;;;;;;;;;;500263;28;1471;-76
2023/05/26 03:18:14;;;;;;;15.35;11.82;;;;;;;;;;498108;28;1310;-75
2023/05/26 03:18:55;;;;;;;15.10;11.73;;;;;;;;;;499711;28;1362;-75
2023/05/26 03:19:20;;;;;;;14.80;11.68;;;;;;;;;;494242;28;1483;-76
2023/05/26 03:19:57;;;;;;;15.43;11.90;;;;;;;;;;507964;28;1216;-76
2023/05/26 03:20:13;;;;;;;15.35;11.90;;;;;;;;;;491769;28;1926;-76
2023/05/26 03:21:10;;;;;;;15.10;11.77;;;;;;;;;;504735;28;1266;-75
2023/05/26 03:21:32;;;;;;;16.00;12.05;;;;;;;;;;498105;28;1427;-75
2023/05/26 03:22:05;;;;;;;17.08;12.25;;;;;;;;;;501130;28;1014;-75
2023/05/26 03:22:27;;;;;;;14.10;11.57;;;;;;;;;;501405;28;1262;-75